Time;durP1;ratioP1;P1;durP2;ratioP2;P2;SDS_P1;SDS_P2;PMS_P1;PMS_P2;Temp;Humidity;BMP_temperature;BMP_pressure;BME280_temperature;BME280_humidity;BME280_pressure;Samples;Min_cycle;Max_cycle;Signal;HPM_P1;HPM_P2
2022/08/17 00:02:19;;;;;;;4.00;3.05;;;17.40;99.90;;;;;;5110359;28;20055;-48
2022/08/17 00:04:52;;;;;;;4.05;2.97;;;17.40;99.90;;;;;;5102158;28;20056;-48
2022/08/17 00:07:19;;;;;;;4.25;3.20;;;17.30;99.90;;;;;;5113038;28;20051;-48
2022/08/17 00:09:46;;;;;;;3.65;2.90;;;17.20;99.90;;;;;;5112852;28;20059;-49
2022/08/17 00:12:13;;;;;;;8.38;3.28;;;17.20;99.90;;;;;;5103956;28;20076;-48
2022/08/17 00:15:00;;;;;;;5.40;3.90;;;17.10;99.90;;;;;;5104401;28;20047;-48
2022/08/17 00:17:26;;;;;;;6.00;3.42;;;17.10;99.90;;;;;;5112925;28;20044;-48
2022/08/17 00:19:53;;;;;;;8.60;3.72;;;17.00;99.90;;;;;;5109885;28;20054;-48
2022/08/17 00:22:20;;;;;;;5.07;3.63;;;17.00;99.90;;;;;;5103289;28;20105;-47
2022/08/17 00:25:06;;;;;;;4.45;3.40;;;16.90;99.90;;;;;;5112996;28;20031;-49
2022/08/17 00:27:34;;;;;;;5.00;3.70;;;17.00;99.90;;;;;;5109646;28;20039;-48
2022/08/17 00:30:00;;;;;;;6.72;3.80;;;17.00;99.90;;;;;;5081580;28;20040;-48
2022/08/17 00:32:27;;;;;;;6.00;3.78;;;17.00;99.90;;;;;;5092319;28;20040;-47
2022/08/17 00:35:18;;;;;;;8.07;4.15;;;17.00;99.90;;;;;;5092173;28;20441;-48
2022/08/17 00:37:45;;;;;;;4.43;3.30;;;17.00;99.90;;;;;;5100323;28;20040;-50
2022/08/17 00:40:13;;;;;;;4.95;3.60;;;16.90;99.90;;;;;;5103474;28;20070;-48
2022/08/17 00:42:42;;;;;;;4.88;3.45;;;16.90;99.90;;;;;;5112319;28;20036;-48
2022/08/17 00:45:13;;;;;;;7.13;3.95;;;16.90;99.90;;;;;;5105060;28;20036;-48
2022/08/17 00:47:41;;;;;;;6.47;3.67;;;16.90;99.90;;;;;;5103991;28;20449;-48
2022/08/17 00:50:11;;;;;;;4.53;3.45;;;17.00;99.90;;;;;;5111385;28;20461;-49
2022/08/17 00:52:48;;;;;;;5.13;4.13;;;17.00;99.90;;;;;;5112369;28;20067;-48
2022/08/17 00:55:17;;;;;;;7.28;4.22;;;17.00;99.90;;;;;;5099874;28;20052;-48
2022/08/17 00:57:48;;;;;;;5.35;3.35;;;17.00;99.90;;;;;;5108201;28;20055;-48
2022/08/17 01:00:31;;;;;;;9.33;3.90;;;16.90;99.90;;;;;;5111469;28;20115;-47
2022/08/17 01:03:01;;;;;;;5.40;4.30;;;16.70;99.90;;;;;;5107898;28;20031;-49
2022/08/17 01:05:31;;;;;;;5.18;3.55;;;16.40;99.90;;;;;;5105949;28;20085;-48
2022/08/17 01:08:00;;;;;;;7.60;4.30;;;16.20;99.90;;;;;;5112102;28;20105;-47
2022/08/17 01:10:33;;;;;;;5.00;4.07;;;16.10;99.90;;;;;;5108043;28;20239;-47
2022/08/17 01:13:22;;;;;;;7.32;3.65;;;16.10;99.90;;;;;;5099765;28;20032;-48
2022/08/17 01:15:57;;;;;;;8.23;3.58;;;16.00;99.90;;;;;;5091003;28;20047;-48
2022/08/17 01:18:26;;;;;;;6.70;4.03;;;16.00;99.90;;;;;;5091160;28;20076;-49
2022/08/17 01:20:57;;;;;;;7.78;3.80;;;16.00;99.90;;;;;;5098865;28;20046;-47
2022/08/17 01:23:27;;;;;;;6.28;3.85;;;15.90;99.90;;;;;;5105405;28;20046;-47
2022/08/17 01:25:57;;;;;;;7.80;4.75;;;16.00;99.90;;;;;;5111957;28;20032;-48
2022/08/17 01:28:28;;;;;;;4.68;4.07;;;16.10;99.90;;;;;;5110098;28;20035;-48
2022/08/17 01:31:15;;;;;;;5.32;3.95;;;16.10;99.90;;;;;;5103122;28;20046;-47
2022/08/17 01:33:42;;;;;;;6.20;4.40;;;16.30;99.90;;;;;;5111690;28;20061;-47
2022/08/17 01:36:09;;;;;;;6.03;4.13;;;16.30;99.90;;;;;;5111627;28;20044;-48
2022/08/17 01:38:37;;;;;;;4.80;3.60;;;16.30;99.90;;;;;;5102898;28;20040;-49
2022/08/17 01:41:14;;;;;;;5.35;4.00;;;16.30;99.90;;;;;;5102225;28;20036;-47
2022/08/17 01:43:46;;;;;;;7.90;3.75;;;16.40;99.90;;;;;;5111505;28;20549;-48
2022/08/17 01:46:22;;;;;;;5.80;3.65;;;16.30;99.90;;;;;;5111561;28;20047;-49
2022/08/17 01:48:50;;;;;;;6.03;3.55;;;16.30;99.90;;;;;;5109853;28;20118;-48
2022/08/17 01:51:18;;;;;;;9.10;3.78;;;16.20;99.90;;;;;;5102943;28;20044;-47
2022/08/17 01:53:48;;;;;;;8.05;3.50;;;16.20;99.90;;;;;;5110974;28;20484;-47
2022/08/17 01:56:19;;;;;;;3.78;2.97;;;16.10;99.90;;;;;;5104176;28;20043;-47
2022/08/17 01:58:46;;;;;;;6.65;3.95;;;16.10;99.90;;;;;;5102769;28;20048;-47
2022/08/17 02:01:20;;;;;;;5.32;4.15;;;16.00;99.90;;;;;;5110528;28;20448;-48
2022/08/17 02:03:47;;;;;;;6.10;3.53;;;15.90;99.90;;;;;;5110627;28;20071;-48
2022/08/17 02:06:28;;;;;;;6.57;3.42;;;15.90;99.90;;;;;;5099203;28;20102;-47
2022/08/17 02:08:56;;;;;;;5.05;3.75;;;15.90;99.90;;;;;;5109111;28;20056;-50
2022/08/17 02:11:31;;;;;;;5.55;3.35;;;15.80;99.90;;;;;;5110537;28;20499;-49
2022/08/17 02:13:58;;;;;;;3.65;3.03;;;15.80;99.90;;;;;;5100968;28;20040;-48
2022/08/17 02:16:33;;;;;;;4.57;3.63;;;15.80;99.90;;;;;;5111492;28;20044;-48
2022/08/17 02:19:12;;;;;;;5.68;3.80;;;15.80;99.90;;;;;;5111269;28;20635;-47
2022/08/17 02:21:41;;;;;;;7.22;4.00;;;15.80;99.90;;;;;;5102288;28;20047;-47
2022/08/17 02:24:12;;;;;;;6.40;3.53;;;15.80;99.90;;;;;;5102499;28;20039;-48
2022/08/17 02:26:38;;;;;;;4.70;3.33;;;15.80;99.90;;;;;;5111203;28;20036;-48
2022/08/17 02:29:06;;;;;;;5.68;3.60;;;15.80;99.90;;;;;;5104952;28;20097;-48
2022/08/17 02:31:34;;;;;;;;;;;15.70;99.90;;;;;;5105231;28;20048;-49
2022/08/17 02:34:02;;;;;;;6.03;3.83;;;15.60;99.90;;;;;;5111074;28;19942;-48
2022/08/17 02:36:30;;;;;;;4.22;3.78;;;15.60;99.90;;;;;;5103910;28;20043;-48
2022/08/17 02:38:57;;;;;;;5.53;3.90;;;15.60;99.90;;;;;;5102485;28;20051;-49
2022/08/17 02:41:24;;;;;;;5.20;3.33;;;15.60;99.90;;;;;;5110264;28;20484;-49
2022/08/17 02:43:51;;;;;;;5.10;3.95;;;15.60;99.90;;;;;;5108507;28;20036;-48
2022/08/17 02:46:18;;;;;;;5.43;3.38;;;15.60;99.90;;;;;;5103813;28;20051;-48
2022/08/17 02:48:46;;;;;;;6.43;4.15;;;15.60;99.90;;;;;;5114888;28;20040;-49
2022/08/17 02:51:13;;;;;;;7.70;4.20;;;15.50;99.90;;;;;;5113996;28;20043;-48
2022/08/17 02:53:39;;;;;;;7.07;4.00;;;15.50;99.90;;;;;;5106883;28;20047;-48
2022/08/17 02:56:06;;;;;;;6.88;4.38;;;15.60;99.90;;;;;;5106217;28;20040;-50
2022/08/17 02:58:34;;;;;;;7.00;3.83;;;15.60;99.90;;;;;;5114470;28;20036;-48
2022/08/17 03:01:06;;;;;;;5.68;3.92;;;15.70;99.90;;;;;;5113798;28;20043;-48
2022/08/17 03:03:35;;;;;;;5.70;4.30;;;15.70;99.90;;;;;;5106257;28;20051;-49
2022/08/17 03:06:03;;;;;;;7.07;4.90;;;15.70;99.90;;;;;;5113375;28;20093;-48
2022/08/17 03:08:30;;;;;;;6.35;4.47;;;15.80;99.90;;;;;;5114329;28;20047;-48
2022/08/17 03:10:57;;;;;;;7.97;4.18;;;15.80;99.90;;;;;;5110423;28;20085;-48
2022/08/17 03:13:24;;;;;;;6.25;4.10;;;15.70;99.90;;;;;;5105685;28;20055;-48
2022/08/17 03:15:50;;;;;;;12.55;4.43;;;15.70;99.90;;;;;;5114206;28;20039;-48
2022/08/17 03:18:19;;;;;;;6.25;4.35;;;15.60;99.90;;;;;;5114253;28;20047;-47
2022/08/17 03:20:57;;;;;;;7.10;4.50;;;15.60;99.90;;;;;;5106268;28;20040;-50
2022/08/17 03:23:24;;;;;;;5.60;3.97;;;15.60;99.90;;;;;;5105892;28;20039;-48
2022/08/17 03:25:54;;;;;;;7.60;4.25;;;15.60;99.90;;;;;;5114209;28;20057;-48
2022/08/17 03:28:22;;;;;;;6.70;4.60;;;15.60;99.90;;;;;;5111262;28;20036;-48
2022/08/17 03:30:49;;;;;;;7.63;4.15;;;15.60;99.90;;;;;;5104243;28;20036;-49
2022/08/17 03:33:18;;;;;;;8.73;4.53;;;15.60;99.90;;;;;;5113938;28;20048;-48
2022/08/17 03:35:45;;;;;;;7.38;4.13;;;15.60;99.90;;;;;;5113431;28;20051;-49
2022/08/17 03:38:15;;;;;;;5.82;4.18;;;15.50;99.90;;;;;;5108193;28;20050;-50
2022/08/17 03:40:45;;;;;;;7.03;4.32;;;15.50;99.90;;;;;;5104380;28;20047;-49
2022/08/17 03:43:29;;;;;;;6.75;3.85;;;15.50;99.90;;;;;;5112450;28;20031;-48
2022/08/17 03:57:18;;;;;;;6.47;3.53;;;15.10;99.90;;;;;;5107406;28;20044;-48
2022/08/17 03:59:46;;;;;;;7.78;4.18;;;15.10;99.90;;;;;;5112850;28;20047;-50
2022/08/17 04:02:21;;;;;;;8.48;4.68;;;15.10;99.90;;;;;;5108708;28;20738;-48
2022/08/17 04:04:52;;;;;;;5.85;3.97;;;15.10;99.90;;;;;;5101728;28;20419;-48
2022/08/17 04:07:21;;;;;;;5.13;4.10;;;15.20;99.90;;;;;;5112782;28;20438;-48
2022/08/17 04:09:48;;;;;;;5.82;4.30;;;15.20;99.90;;;;;;5113011;28;20036;-48
2022/08/17 04:12:17;;;;;;;7.65;5.28;;;15.30;99.90;;;;;;5106919;28;20064;-48
2022/08/17 04:14:44;;;;;;;7.47;4.18;;;15.30;99.90;;;;;;5108573;28;20035;-47
2022/08/17 04:17:22;;;;;;;6.85;3.90;;;15.40;99.90;;;;;;5112609;28;20500;-47
2022/08/17 04:19:49;;;;;;;6.10;4.30;;;15.30;99.90;;;;;;5102122;28;20048;-47
2022/08/17 04:22:17;;;;;;;10.90;4.55;;;15.30;99.90;;;;;;5112673;28;20051;-48
2022/08/17 04:25:19;;;;;;;7.55;4.93;;;15.30;99.90;;;;;;5113099;28;20040;-49
2022/08/17 04:27:47;;;;;;;9.05;4.82;;;15.30;99.90;;;;;;5111405;28;20498;-47
2022/08/17 04:30:14;;;;;;;8.38;4.70;;;15.30;99.90;;;;;;5103445;28;20058;-48
2022/08/17 04:32:58;;;;;;;6.57;4.75;;;15.40;99.90;;;;;;5112581;28;20047;-48
2022/08/17 04:35:38;;;;;;;8.70;4.70;;;15.40;99.90;;;;;;5110550;28;20043;-49
2022/08/17 04:38:07;;;;;;;7.60;4.70;;;15.40;99.90;;;;;;5111261;27;20774;-51
2022/08/17 04:43:21;;;;;;;6.07;4.28;;;15.40;99.90;;;;;;5105524;28;21032;-48
2022/08/17 04:45:51;;;;;;;5.93;4.35;;;15.60;99.90;;;;;;5106603;28;20039;-49
2022/08/17 04:48:42;;;;;;;6.93;5.00;;;15.50;99.90;;;;;;5110301;28;20118;-48
2022/08/17 04:51:12;;;;;;;7.53;5.00;;;15.60;99.90;;;;;;5108853;28;20040;-48
2022/08/17 04:53:42;;;;;;;10.70;5.00;;;15.70;99.90;;;;;;5104654;28;20518;-48
2022/08/17 04:56:14;;;;;;;6.72;4.93;;;15.70;99.90;;;;;;5111389;28;20038;-48
2022/08/17 04:58:46;;;;;;;6.30;4.85;;;15.80;99.90;;;;;;5110695;28;20389;-49
2022/08/17 05:01:14;;;;;;;7.75;4.70;;;15.80;99.90;;;;;;5108239;28;20051;-48
2022/08/17 05:03:42;;;;;;;9.10;4.88;;;15.90;99.90;;;;;;5108069;28;20044;-48
2022/08/17 05:06:09;;;;;;;6.55;4.57;;;15.90;99.90;;;;;;5112225;28;20100;-47
2022/08/17 05:08:36;;;;;;;7.15;4.70;;;16.00;99.90;;;;;;5111667;28;20036;-48
2022/08/17 05:11:02;;;;;;;7.53;4.50;;;15.90;99.90;;;;;;5103627;28;20040;-49
2022/08/17 05:13:29;;;;;;;7.82;4.80;;;16.00;99.90;;;;;;5106157;28;20051;-49
2022/08/17 05:15:59;;;;;;;7.15;4.65;;;16.00;99.90;;;;;;5111960;28;20093;-51
2022/08/17 05:18:27;;;;;;;6.55;4.03;;;16.10;99.90;;;;;;5111413;28;20067;-49
2022/08/17 05:20:54;;;;;;;6.18;4.70;;;16.10;99.90;;;;;;5102624;28;20051;-48
2022/08/17 05:23:23;;;;;;;5.85;4.70;;;16.10;99.90;;;;;;5104875;28;20066;-49
2022/08/17 05:25:54;;;;;;;8.02;4.72;;;16.20;99.90;;;;;;5111595;28;20043;-50
2022/08/17 05:28:22;;;;;;;7.28;5.22;;;16.20;99.90;;;;;;5107076;28;20373;-50
2022/08/17 05:30:55;;;;;;;8.38;4.63;;;16.20;99.90;;;;;;5100186;28;20450;-48
2022/08/17 05:33:26;;;;;;;7.20;4.90;;;16.30;99.90;;;;;;5111524;28;20043;-50
2022/08/17 05:35:56;;;;;;;6.68;4.35;;;16.30;99.90;;;;;;5111760;28;20044;-50
2022/08/17 05:38:24;;;;;;;7.10;4.38;;;16.30;99.90;;;;;;5107584;28;20069;-48
2022/08/17 05:40:51;;;;;;;9.00;4.13;;;16.40;99.90;;;;;;5102420;28;20051;-49
2022/08/17 05:43:24;;;;;;;7.10;4.82;;;16.40;99.90;;;;;;5111432;28;20047;-49
2022/08/17 05:46:25;;;;;;;12.82;4.55;;;16.50;99.90;;;;;;5135044;22;20453;-50
2022/08/17 05:48:55;;;;;;;6.35;4.57;;;16.50;99.90;;;;;;5113491;27;20093;-49
2022/08/17 05:51:57;;;;;;;7.43;4.78;;;16.60;99.90;;;;;;5128898;27;20041;-51
2022/08/17 05:54:31;;;;;;;10.77;4.63;;;16.60;99.90;;;;;;5065020;27;20054;-49
2022/08/17 05:57:04;;;;;;;6.10;4.88;;;16.60;99.90;;;;;;5123456;27;20046;-49
2022/08/17 06:00:11;;;;;;;9.95;5.40;;;16.70;99.90;;;;;;5131755;27;20035;-52
2022/08/17 06:02:54;;;;;;;8.38;5.30;;;16.80;99.90;;;;;;5131652;28;20042;-49
2022/08/17 06:05:53;;;;;;;9.20;5.65;;;16.90;99.90;;;;;;5112333;28;20044;-51
2022/08/17 06:08:44;;;;;;;7.65;5.13;;;17.00;99.90;;;;;;5090755;28;20036;-50
2022/08/17 06:11:37;;;;;;;9.25;5.43;;;17.10;99.90;;;;;;5092719;28;20518;-49
2022/08/17 06:14:39;;;;;;;8.43;4.68;;;17.20;99.90;;;;;;5122178;28;20040;-49
2022/08/17 06:17:12;;;;;;;7.22;4.85;;;17.20;99.90;;;;;;5125362;28;20063;-51
2022/08/17 06:19:49;;;;;;;5.82;4.43;;;17.30;99.90;;;;;;5131123;27;20047;-49
2022/08/17 06:22:20;;;;;;;11.38;5.10;;;17.30;99.90;;;;;;5111141;28;20053;-51
2022/08/17 06:24:52;;;;;;;8.75;4.80;;;17.40;99.90;;;;;;5132366;27;20411;-51
2022/08/17 06:27:41;;;;;;;7.35;5.13;;;17.50;99.90;;;;;;5136066;27;20317;-50
2022/08/17 06:30:20;;;;;;;7.78;4.47;;;17.60;99.90;;;;;;5129771;27;20043;-49
2022/08/17 06:32:49;;;;;;;9.95;4.47;;;17.80;99.90;;;;;;5127047;27;20479;-50
2022/08/17 06:35:29;;;;;;;5.80;4.80;;;17.90;99.90;;;;;;5135355;27;20035;-53
2022/08/17 06:38:08;;;;;;;9.52;4.60;;;18.10;99.90;;;;;;5135662;27;20061;-51
2022/08/17 06:40:57;;;;;;;5.45;3.97;;;18.20;99.90;;;;;;5125105;27;20040;-51
2022/08/17 06:43:49;;;;;;;8.73;4.47;;;18.40;99.90;;;;;;5094218;28;20163;-49
2022/08/17 06:46:16;;;;;;;6.88;4.63;;;18.50;99.90;;;;;;5112836;28;20048;-50
2022/08/17 06:48:51;;;;;;;7.82;4.78;;;18.70;99.90;;;;;;5136015;27;20498;-49
2022/08/17 06:51:25;;;;;;;7.68;3.92;;;18.70;99.90;;;;;;5138811;27;20510;-50
2022/08/17 06:54:04;;;;;;;10.05;5.15;;;18.80;99.90;;;;;;5155511;27;20047;-50
2022/08/17 06:56:43;;;;;;;10.63;4.30;;;18.90;99.90;;;;;;5146426;27;20039;-51
2022/08/17 06:59:25;;;;;;;6.22;3.70;;;19.00;99.90;;;;;;5141049;27;20078;-51
2022/08/17 07:02:18;;;;;;;6.68;4.53;;;19.20;99.90;;;;;;5139952;27;20118;-52
2022/08/17 07:04:55;;;;;;;11.13;4.90;;;19.30;99.90;;;;;;5149172;27;20103;-51
2022/08/17 07:10:08;;;;;;;6.95;4.72;;;19.60;99.90;;;;;;5154619;27;20045;-52
2022/08/17 07:12:39;;;;;;;8.35;4.55;;;19.70;99.90;;;;;;5153367;27;20039;-52
2022/08/17 07:15:21;;;;;;;7.53;4.10;;;19.80;99.90;;;;;;5155244;27;20104;-50
2022/08/17 07:17:48;;;;;;;7.13;4.18;;;20.00;99.90;;;;;;5155452;27;20039;-52
2022/08/17 07:20:19;;;;;;;6.18;4.22;;;20.10;99.90;;;;;;5151206;27;20087;-49
2022/08/17 07:22:57;;;;;;;7.20;4.05;;;20.40;99.90;;;;;;5155370;27;20047;-50
2022/08/17 07:25:28;;;;;;;7.03;4.30;;;20.40;99.90;;;;;;5155120;27;20046;-50
2022/08/17 07:27:59;;;;;;;6.88;4.20;;;20.60;99.90;;;;;;5155445;27;20046;-52
2022/08/17 07:30:29;;;;;;;6.20;3.55;;;20.80;99.90;;;;;;5125250;27;20035;-52
2022/08/17 07:33:16;;;;;;;6.60;4.00;;;20.90;99.90;;;;;;5153801;27;20047;-51
2022/08/17 07:35:45;;;;;;;6.93;4.05;;;21.10;99.90;;;;;;5155081;27;20042;-50
2022/08/17 07:38:19;;;;;;;9.25;4.55;;;21.30;99.90;;;;;;5150415;27;20042;-50
2022/08/17 07:41:00;;;;;;;6.05;3.53;;;21.50;99.90;;;;;;5154043;27;20049;-52
2022/08/17 07:43:39;;;;;;;7.55;4.63;;;21.80;99.90;;;;;;5154726;27;20110;-50
2022/08/17 07:49:12;;;;;;;5.82;4.60;;;22.10;99.90;;;;;;5137350;27;20039;-50
2022/08/17 07:51:55;;;;;;;8.40;4.00;;;22.20;99.90;;;;;;5153933;27;20057;-50
2022/08/17 07:54:35;;;;;;;7.18;4.47;;;22.50;99.90;;;;;;5131231;27;20039;-54
2022/08/17 07:57:28;;;;;;;8.88;4.63;;;22.70;99.90;;;;;;5154184;27;20060;-52
2022/08/17 07:59:58;;;;;;;5.32;3.80;;;22.90;99.90;;;;;;5152734;27;20049;-50
2022/08/17 08:02:37;;;;;;;5.15;4.15;;;23.00;99.90;;;;;;5153518;27;20046;-51
2022/08/17 08:05:18;;;;;;;6.05;4.28;;;23.20;99.90;;;;;;5152276;27;20045;-51
2022/08/17 08:08:37;;;;;;;8.73;4.40;;;23.30;99.90;;;;;;5154491;27;20065;-51
2022/08/17 08:11:27;;;;;;;4.38;3.97;;;23.40;99.90;;;;;;5153414;27;20440;-54
2022/08/17 08:13:53;;;;;;;5.03;3.92;;;23.40;99.90;;;;;;5151493;27;20039;-50
2022/08/17 08:16:28;;;;;;;4.32;3.83;;;23.40;99.90;;;;;;5154209;27;20453;-52
2022/08/17 08:19:00;;;;;;;7.65;4.13;;;23.50;99.90;;;;;;5153978;27;20045;-51
2022/08/17 08:21:57;;;;;;;5.82;3.90;;;23.50;99.90;;;;;;5141322;27;20091;-53
2022/08/17 08:24:30;;;;;;;6.18;4.75;;;23.70;99.90;;;;;;5112868;28;20043;-51
2022/08/17 08:27:12;;;;;;;6.60;4.00;;;23.90;99.90;;;;;;5115414;27;20058;-51
2022/08/17 08:29:51;;;;;;;5.28;4.57;;;23.90;99.90;;;;;;5149346;27;20493;-52
2022/08/17 08:32:35;;;;;;;5.35;4.30;;;24.10;99.90;;;;;;5094553;28;20050;-54
2022/08/17 08:35:25;;;;;;;5.03;4.25;;;24.20;99.90;;;;;;5113236;27;20051;-53
2022/08/17 08:38:28;;;;;;;7.05;4.13;;;24.20;99.90;;;;;;5148488;27;20046;-53
2022/08/17 08:41:43;;;;;;;5.50;4.53;;;24.10;99.90;;;;;;5048619;28;20097;-52
2022/08/17 08:44:28;;;;;;;7.97;4.30;;;24.30;99.90;;;;;;5079113;27;20057;-50
2022/08/17 08:47:36;;;;;;;9.88;4.30;;;24.50;99.90;;;;;;5145812;27;20539;-54
2022/08/17 08:50:13;;;;;;;7.00;4.80;;;24.70;99.90;;;;;;5152799;27;20050;-51
2022/08/17 08:53:20;;;;;;;9.65;4.30;;;24.90;99.90;;;;;;5153523;27;20034;-53
2022/08/17 08:56:07;;;;;;;5.70;4.35;;;25.10;99.90;;;;;;5146161;27;20038;-54
2022/08/17 08:59:05;;;;;;;5.72;4.45;;;25.40;99.90;;;;;;5134793;27;20046;-53
2022/08/17 09:01:59;;;;;;;6.78;4.85;;;25.60;99.90;;;;;;5151265;27;20546;-54
2022/08/17 09:04:29;;;;;;;5.93;4.20;;;25.70;99.90;;;;;;5145177;27;20054;-52
2022/08/17 09:07:24;;;;;;;9.63;4.18;;;25.70;99.90;;;;;;5153047;27;20034;-53
2022/08/17 09:10:14;;;;;;;5.68;4.53;;;25.80;99.90;;;;;;5104774;27;20062;-50
2022/08/17 09:13:11;;;;;;;7.32;4.38;;;25.60;99.90;;;;;;5141517;27;20047;-52
2022/08/17 09:15:45;;;;;;;5.43;4.40;;;25.50;99.90;;;;;;5144050;27;20058;-53
2022/08/17 09:18:32;;;;;;;5.88;4.72;;;25.50;99.90;;;;;;5153191;27;20057;-50
2022/08/17 09:21:36;;;;;;;6.68;4.20;;;25.50;99.90;;;;;;5149247;27;20047;-52
2022/08/17 09:24:31;;;;;;;8.73;4.25;;;25.70;99.90;;;;;;5136484;27;20039;-51
2022/08/17 09:27:01;;;;;;;6.05;4.45;;;25.70;99.90;;;;;;5153015;27;20119;-54
2022/08/17 09:29:34;;;;;;;6.80;4.72;;;25.80;99.90;;;;;;5152957;27;20046;-50
2022/08/17 09:32:16;;;;;;;6.80;5.07;;;26.10;99.90;;;;;;5146201;27;20495;-53
2022/08/17 09:34:53;;;;;;;6.57;4.60;;;26.30;99.90;;;;;;5152880;27;20066;-51
2022/08/17 09:37:36;;;;;;;9.95;4.82;;;26.50;99.90;;;;;;5152692;27;20054;-51
2022/08/17 09:40:24;;;;;;;5.25;4.70;;;26.60;99.20;;;;;;5143672;27;20044;-53
2022/08/17 09:43:03;;;;;;;6.05;4.10;;;26.80;98.30;;;;;;5152604;27;20049;-53
2022/08/17 09:45:56;;;;;;;5.43;4.43;;;26.90;98.10;;;;;;5124265;27;20046;-49
2022/08/17 09:48:39;;;;;;;5.07;3.95;;;27.00;98.20;;;;;;5124227;27;20412;-54
2022/08/17 09:51:16;;;;;;;7.47;4.35;;;27.20;97.90;;;;;;5127017;27;20054;-53
2022/08/17 09:53:43;;;;;;;11.00;4.72;;;27.30;98.00;;;;;;5123810;27;20051;-50
2022/08/17 09:56:16;;;;;;;;;;;27.40;98.30;;;;;;5126952;27;20514;-51
2022/08/17 09:58:55;;;;;;;5.22;4.68;;;27.40;98.00;;;;;;5122892;27;19919;-52
2022/08/17 10:01:34;;;;;;;8.40;4.75;;;27.30;97.60;;;;;;5129765;27;20039;-51
2022/08/17 10:04:14;;;;;;;5.43;4.35;;;27.30;98.70;;;;;;5129737;27;20518;-51
2022/08/17 10:07:01;;;;;;;9.50;6.60;;;27.30;99.50;;;;;;5131840;28;20047;-49
2022/08/17 10:10:03;;;;;;;8.45;5.05;;;27.20;99.60;;;;;;5131439;28;20044;-49
2022/08/17 10:12:37;;;;;;;8.00;4.80;;;27.30;98.70;;;;;;5139409;27;20065;-49
2022/08/17 10:15:26;;;;;;;5.03;4.43;;;27.50;99.60;;;;;;5123379;28;20066;-49
2022/08/17 10:18:07;;;;;;;10.55;5.10;;;27.90;98.10;;;;;;5131620;28;20507;-50
2022/08/17 10:20:49;;;;;;;9.27;4.55;;;28.10;98.40;;;;;;5137864;27;20035;-51
2022/08/17 10:26:25;;;;;;;5.63;4.45;;;28.20;96.90;;;;;;5152374;27;20039;-49
2022/08/17 10:29:09;;;;;;;5.70;4.40;;;28.40;98.30;;;;;;5148676;27;20046;-49
2022/08/17 10:31:41;;;;;;;7.18;4.75;;;28.40;97.20;;;;;;5125688;27;20054;-50
2022/08/17 10:34:33;;;;;;;7.13;4.30;;;28.40;97.60;;;;;;5131421;27;20053;-49
2022/08/17 10:37:41;;;;;;;5.55;4.25;;;28.40;97.10;;;;;;5131302;28;20046;-50
2022/08/17 10:40:31;;;;;;;11.63;5.00;;;28.60;96.90;;;;;;5142186;27;20042;-50
2022/08/17 10:43:28;;;;;;;7.13;4.30;;;28.60;96.50;;;;;;5151293;27;20043;-50
2022/08/17 10:46:04;;;;;;;7.80;4.40;;;28.60;95.30;;;;;;5151487;27;20413;-50
2022/08/17 10:49:16;;;;;;;7.32;4.55;;;28.60;96.10;;;;;;5146470;27;20083;-50
2022/08/17 10:51:54;;;;;;;5.13;4.03;;;28.70;95.90;;;;;;5151280;27;20050;-50
2022/08/17 10:54:37;;;;;;;4.90;4.40;;;28.80;96.10;;;;;;5151817;27;20088;-52
2022/08/17 10:57:33;;;;;;;4.57;4.10;;;28.80;95.70;;;;;;5143675;27;20046;-49
2022/08/17 11:00:07;;;;;;;6.47;4.60;;;28.80;94.20;;;;;;5151361;27;20038;-49
2022/08/17 11:02:47;;;;;;;9.35;4.60;;;28.90;95.20;;;;;;5133940;27;20043;-50
2022/08/17 11:05:39;;;;;;;5.88;4.63;;;28.80;95.20;;;;;;5146893;27;20642;-50
2022/08/17 11:08:37;;;;;;;7.55;4.60;;;28.80;95.00;;;;;;5154852;27;20039;-51
2022/08/17 11:11:18;;;;;;;4.93;4.38;;;28.90;94.70;;;;;;5154481;27;20063;-49
2022/08/17 11:13:57;;;;;;;5.97;4.68;;;28.90;95.20;;;;;;5150626;27;20046;-49
2022/08/17 11:16:31;;;;;;;5.07;4.30;;;28.70;95.60;;;;;;5142205;27;20047;-50
2022/08/17 11:19:32;;;;;;;8.73;5.07;;;28.60;95.30;;;;;;5155412;27;20051;-49
2022/08/17 11:22:13;;;;;;;9.07;4.28;;;28.50;95.60;;;;;;5151323;27;20046;-50
2022/08/17 11:24:43;;;;;;;6.80;4.60;;;28.70;95.90;;;;;;5146246;27;20042;-50
2022/08/17 11:27:21;;;;;;;6.90;4.47;;;29.00;95.20;;;;;;5113995;28;20039;-50
2022/08/17 11:29:56;;;;;;;8.27;4.32;;;29.30;94.30;;;;;;5114015;28;20051;-50
2022/08/17 11:32:36;;;;;;;4.82;4.38;;;29.70;94.40;;;;;;5133644;27;20157;-50
2022/08/17 11:35:19;;;;;;;4.90;3.92;;;29.80;93.60;;;;;;5155104;27;20043;-50
2022/08/17 11:37:55;;;;;;;4.57;4.18;;;29.90;94.30;;;;;;5155012;27;20046;-49
2022/08/17 11:40:32;;;;;;;5.80;4.50;;;29.70;92.70;;;;;;5154019;27;20043;-51
2022/08/17 11:43:12;;;;;;;4.75;4.25;;;29.80;91.10;;;;;;5145163;27;20047;-49
2022/08/17 11:45:52;;;;;;;6.45;4.45;;;29.70;91.70;;;;;;5140611;22;20052;-48
2022/08/17 11:51:58;;;;;;;8.32;4.78;;;29.90;92.90;;;;;;5108582;28;20040;-48
2022/08/17 11:54:29;;;;;;;5.80;4.40;;;30.20;92.20;;;;;;5113393;28;20046;-47
2022/08/17 11:57:20;;;;;;;10.82;4.78;;;30.30;91.70;;;;;;5113027;28;20047;-49
2022/08/17 11:59:47;;;;;;;4.82;3.72;;;30.40;92.10;;;;;;5107663;28;20062;-49
2022/08/17 12:02:31;;;;;;;12.20;4.43;;;30.40;92.60;;;;;;5100892;28;20047;-48
2022/08/17 12:05:11;;;;;;;4.45;3.83;;;30.40;92.00;;;;;;5092989;28;20320;-49
2022/08/17 12:08:09;;;;;;;7.38;3.78;;;30.30;91.50;;;;;;5092839;28;20059;-47
2022/08/17 12:10:48;;;;;;;6.38;4.20;;;29.90;91.80;;;;;;5085334;28;20047;-47
2022/08/17 12:13:16;;;;;;;6.50;5.78;;;29.90;90.90;;;;;;5113104;28;20047;-47
2022/08/17 12:15:49;;;;;;;5.80;3.80;;;30.00;90.50;;;;;;5103480;28;20048;-47
2022/08/17 12:18:28;;;;;;;5.25;4.13;;;30.10;90.30;;;;;;5091596;28;20044;-47
2022/08/17 12:21:23;;;;;;;4.25;3.58;;;30.20;90.10;;;;;;5091673;28;20040;-47
2022/08/17 12:24:02;;;;;;;4.32;3.75;;;30.50;90.00;;;;;;5093598;28;20040;-47
2022/08/17 12:26:32;;;;;;;7.43;3.80;;;30.60;89.40;;;;;;5098510;28;20055;-47
2022/08/17 12:29:13;;;;;;;4.63;4.13;;;30.70;89.60;;;;;;5092594;28;20040;-47
2022/08/17 12:32:01;;;;;;;6.22;4.25;;;30.70;91.50;;;;;;5094022;28;20530;-47
2022/08/17 12:34:36;;;;;;;6.72;4.03;;;30.60;91.10;;;;;;5097589;28;20118;-47
2022/08/17 12:37:11;;;;;;;7.90;4.00;;;30.50;91.30;;;;;;5092453;28;20048;-48
2022/08/17 12:39:48;;;;;;;4.25;3.85;;;30.40;89.70;;;;;;5092529;28;20055;-47
2022/08/17 12:42:24;;;;;;;4.10;3.70;;;30.50;88.50;;;;;;5095760;28;20373;-47
2022/08/17 12:44:51;;;;;;;5.60;4.18;;;30.50;89.70;;;;;;5112372;28;20792;-47
2022/08/17 12:47:19;;;;;;;6.50;4.18;;;30.50;90.70;;;;;;5112299;28;20097;-49
2022/08/17 12:49:53;;;;;;;3.78;3.47;;;30.60;89.50;;;;;;5095747;28;20040;-48
2022/08/17 12:52:31;;;;;;;6.78;4.40;;;30.60;88.80;;;;;;5098840;28;20044;-47
2022/08/17 12:55:11;;;;;;;11.07;4.60;;;30.50;90.20;;;;;;5091956;28;20061;-47
2022/08/17 12:57:38;;;;;;;6.35;4.20;;;30.30;90.00;;;;;;5092126;28;20055;-47
2022/08/17 13:00:18;;;;;;;5.75;4.50;;;30.30;91.60;;;;;;5099363;28;20377;-47
2022/08/17 13:02:52;;;;;;;8.38;4.63;;;30.20;92.40;;;;;;5091940;28;20055;-47
2022/08/17 13:05:29;;;;;;;5.25;4.32;;;30.10;91.80;;;;;;5091944;28;20043;-50
2022/08/17 13:07:58;;;;;;;5.57;4.07;;;30.10;90.40;;;;;;5099890;28;20059;-47
2022/08/17 13:10:28;;;;;;;9.27;4.65;;;30.20;90.90;;;;;;5090752;28;20048;-47
2022/08/17 13:13:03;;;;;;;11.30;4.65;;;30.30;91.90;;;;;;5091526;28;20453;-47
2022/08/17 13:15:40;;;;;;;5.90;4.18;;;30.30;91.40;;;;;;5099885;28;20047;-47
2022/08/17 13:18:37;;;;;;;6.38;4.40;;;30.40;91.00;;;;;;5091456;28;20047;-47
2022/08/17 13:21:22;;;;;;;5.32;4.32;;;30.50;90.60;;;;;;5090641;28;20051;-47
2022/08/17 13:24:16;;;;;;;6.63;4.35;;;30.60;90.60;;;;;;5100340;28;20044;-47
2022/08/17 13:26:44;;;;;;;9.27;4.18;;;30.70;91.70;;;;;;5091472;28;20048;-47
2022/08/17 13:29:22;;;;;;;4.15;3.70;;;30.70;90.40;;;;;;5090931;28;20051;-49
2022/08/17 13:32:12;;;;;;;7.20;4.03;;;30.70;90.60;;;;;;5091657;28;20040;-47
2022/08/17 13:34:46;;;;;;;5.88;4.22;;;30.60;90.00;;;;;;5095233;28;20139;-48
2022/08/17 13:37:35;;;;;;;5.00;4.40;;;30.80;90.40;;;;;;5091466;28;20385;-47
2022/08/17 13:40:08;;;;;;;6.65;4.68;;;30.60;88.00;;;;;;5086870;28;20043;-47
2022/08/17 13:42:41;;;;;;;9.80;4.50;;;30.40;89.30;;;;;;5095716;28;20040;-48
2022/08/17 13:45:28;;;;;;;8.63;4.10;;;30.30;90.60;;;;;;5105535;27;20100;-48
2022/08/17 13:48:14;;;;;;;5.88;4.22;;;30.10;90.00;;;;;;5122721;27;20067;-47
2022/08/17 13:50:55;;;;;;;8.25;4.57;;;30.00;90.20;;;;;;5126774;27;20043;-48
2022/08/17 13:53:34;;;;;;;5.20;4.40;;;30.20;90.00;;;;;;5131807;27;20047;-49
2022/08/17 13:56:13;;;;;;;4.55;4.15;;;30.50;89.80;;;;;;5127047;27;20074;-47
2022/08/17 13:59:04;;;;;;;5.82;4.35;;;30.80;90.20;;;;;;5120108;27;20036;-47
2022/08/17 14:01:30;;;;;;;4.93;4.30;;;31.10;89.70;;;;;;5130995;27;20035;-47
2022/08/17 14:04:03;;;;;;;5.72;3.85;;;31.30;87.20;;;;;;5131684;27;20035;-48
2022/08/17 14:06:53;;;;;;;7.18;4.90;;;31.40;87.90;;;;;;5121953;28;20035;-47